Time;durP1;ratioP1;P1;durP2;ratioP2;P2;SDS_P1;SDS_P2;PMS_P1;PMS_P2;Temp;Humidity;BMP_temperature;BMP_pressure;BME280_temperature;BME280_humidity;BME280_pressure;Samples;Min_cycle;Max_cycle;Signal;HPM_P1;HPM_P2
2023/12/23 00:01:53;;;;;;;1.98;0.93;;;;;;;5.27;51.89;93590.84;5108757;28;20390;-76
2023/12/23 00:04:18;;;;;;;1.90;1.10;;;;;;;5.05;52.28;93590.75;5107532;28;20036;-76
2023/12/23 00:06:44;;;;;;;1.60;1.00;;;;;;;5.10;52.76;93596.81;5108535;28;20046;-76
2023/12/23 00:09:09;;;;;;;2.60;1.33;;;;;;;5.22;52.79;93568.84;5107979;28;20071;-75
2023/12/23 00:11:34;;;;;;;3.05;1.85;;;;;;;5.22;53.10;93563.41;5107977;28;20103;-76
2023/12/23 00:14:00;;;;;;;2.58;1.38;;;;;;;5.23;53.32;93540.41;5107798;28;20547;-75
2023/12/23 00:16:27;;;;;;;2.90;1.13;;;;;;;5.26;53.66;93548.44;5108147;28;20028;-77
2023/12/23 00:18:53;;;;;;;2.92;1.45;;;;;;;5.08;54.16;93542.78;5108537;28;20035;-76
2023/12/23 00:21:18;;;;;;;1.67;0.90;;;;;;;5.01;54.27;93535.59;5106067;28;20088;-76
2023/12/23 00:23:44;;;;;;;1.15;0.88;;;;;;;4.84;54.53;93533.41;5108309;28;20546;-76
2023/12/23 00:26:09;;;;;;;1.95;1.20;;;;;;;4.73;54.67;93531.75;5107713;28;20020;-76
2023/12/23 00:28:34;;;;;;;1.38;1.00;;;;;;;4.72;54.96;93543.84;5108216;28;20452;-76
2023/12/23 00:31:00;;;;;;;3.83;1.48;;;;;;;4.66;55.36;93558.41;5107690;28;20023;-76
2023/12/23 00:33:25;;;;;;;2.08;1.15;;;;;;;4.65;55.40;93559.63;5107930;28;20093;-76
2023/12/23 00:35:51;;;;;;;2.58;1.10;;;;;;;4.76;55.25;93565.53;5107919;28;20035;-77
2023/12/23 00:38:16;;;;;;;2.28;1.25;;;;;;;4.83;55.17;93556.38;5107280;28;20080;-77
2023/12/23 00:40:41;;;;;;;2.65;1.33;;;;;;;4.96;54.79;93555.19;5108121;28;20027;-77
2023/12/23 00:43:07;;;;;;;2.28;1.40;;;;;;;4.94;54.62;93554.13;5107023;28;20305;-78
2023/12/23 00:45:32;;;;;;;1.70;1.05;;;;;;;4.92;54.85;93540.91;5107398;28;20161;-76
2023/12/23 00:47:58;;;;;;;1.85;1.40;;;;;;;5.03;54.69;93546.81;5104630;28;20538;-78
2023/12/23 00:50:23;;;;;;;2.42;1.20;;;;;;;5.00;54.66;93542.25;5107684;28;20038;-77
2023/12/23 00:52:48;;;;;;;4.35;1.45;;;;;;;5.02;54.53;93542.56;5107397;28;20088;-77
2023/12/23 00:55:14;;;;;;;5.22;1.50;;;;;;;5.14;53.92;93554.66;5107353;28;20028;-77
2023/12/23 00:57:39;;;;;;;2.30;1.20;;;;;;;5.20;53.89;93549.44;5107697;28;20071;-76
2023/12/23 01:00:05;;;;;;;4.00;1.70;;;;;;;5.32;53.84;93557.59;5106951;28;20102;-76
2023/12/23 01:02:31;;;;;;;2.70;1.50;;;;;;;5.42;53.74;93544.88;5106520;28;20050;-76
2023/12/23 01:04:56;;;;;;;4.03;1.52;;;;;;;5.47;53.79;93538.88;5106721;28;20489;-76
2023/12/23 01:07:22;;;;;;;2.45;1.45;;;;;;;5.40;54.08;93543.78;5107464;27;20035;-76
2023/12/23 01:09:47;;;;;;;1.52;1.08;;;;;;;5.41;53.76;93542.59;5106808;27;20110;-76
2023/12/23 01:12:12;;;;;;;3.95;1.30;;;;;;;5.49;52.74;93536.44;5106835;27;20103;-77
2023/12/23 01:14:38;;;;;;;2.08;0.80;;;;;;;5.37;52.17;93526.31;5106795;28;20135;-77
2023/12/23 01:17:03;;;;;;;0.80;0.47;;;;;;;5.32;51.74;93505.06;5105165;28;20081;-76
2023/12/23 01:19:29;;;;;;;0.55;0.50;;;;;;;5.25;51.90;93510.75;5107547;28;20055;-76
2023/12/23 01:21:54;;;;;;;0.90;0.70;;;;;;;5.34;51.89;93491.78;5105982;28;20149;-77
2023/12/23 01:24:19;;;;;;;1.02;0.68;;;;;;;5.39;51.80;93496.69;5107123;28;20051;-76
2023/12/23 01:26:45;;;;;;;1.08;0.75;;;;;;;5.40;51.97;93489.28;5106081;28;20032;-76
2023/12/23 01:29:10;;;;;;;0.90;0.43;;;;;;;5.39;51.71;93485.78;5106828;28;20032;-76
2023/12/23 01:31:36;;;;;;;1.13;0.70;;;;;;;5.43;51.97;93456.44;5106782;28;20458;-76
2023/12/23 01:34:01;;;;;;;0.80;0.60;;;;;;;5.47;51.78;93450.88;5106348;28;20030;-77
2023/12/23 01:36:26;;;;;;;0.77;0.60;;;;;;;5.47;51.98;93459.06;5106992;28;20455;-77
2023/12/23 01:38:52;;;;;;;1.20;0.73;;;;;;;5.48;51.64;93445.00;5105741;28;20031;-76
2023/12/23 01:41:17;;;;;;;1.10;0.60;;;;;;;5.43;51.72;93445.53;5107053;28;20039;-76
2023/12/23 01:43:42;;;;;;;2.67;0.70;;;;;;;5.48;51.55;93450.44;5105790;28;20066;-76
2023/12/23 01:46:08;;;;;;;2.42;0.98;;;;;;;5.53;51.54;93430.03;5106502;28;20030;-76
2023/12/23 01:48:39;;;;;;;0.75;0.63;;;;;;;5.63;51.35;93437.09;5105951;28;20035;-77
2023/12/23 01:51:05;;;;;;;0.77;0.70;;;;;;;5.68;51.12;93439.28;5106474;28;20027;-76
2023/12/23 01:53:31;;;;;;;2.00;0.70;;;;;;;5.67;50.81;93458.78;5106516;28;20036;-77
2023/12/23 01:55:56;;;;;;;0.63;0.40;;;;;;;5.55;50.79;93428.38;5105554;28;20038;-77
2023/12/23 01:58:22;;;;;;;1.35;0.80;;;;;;;5.53;50.82;93419.91;5106413;28;20120;-77
2023/12/23 02:00:47;;;;;;;1.42;0.70;;;;;;;5.65;50.96;93425.75;5105604;28;20417;-76
2023/12/23 02:03:13;;;;;;;0.85;0.80;;;;;;;5.72;51.20;93422.78;5106533;28;20410;-76
2023/12/23 02:05:38;;;;;;;1.08;0.70;;;;;;;5.78;51.34;93434.63;5105490;28;20088;-76
2023/12/23 02:08:04;;;;;;;2.03;0.60;;;;;;;5.77;50.51;93427.66;5106467;28;20031;-77
2023/12/23 02:10:30;;;;;;;1.45;0.70;;;;;;;5.80;50.58;93419.38;5105847;28;20379;-76
2023/12/23 02:13:01;;;;;;;1.95;0.60;;;;;;;5.86;50.54;93419.56;5105751;28;20026;-74
2023/12/23 02:15:27;;;;;;;1.25;0.63;;;;;;;5.79;50.49;93426.03;5106689;28;20039;-76
2023/12/23 02:17:59;;;;;;;0.82;0.60;;;;;;;5.84;50.21;93427.41;5105473;28;20076;-76
2023/12/23 02:20:25;;;;;;;1.27;0.70;;;;;;;5.93;50.09;93421.31;5105361;28;20050;-77
2023/12/23 02:22:50;;;;;;;1.20;1.10;;;;;;;6.04;49.83;93427.91;5105620;28;20027;-76
2023/12/23 02:25:16;;;;;;;1.95;0.70;;;;;;;6.09;49.68;93418.41;5106161;28;20399;-76
2023/12/23 02:27:50;;;;;;;1.55;0.82;;;;;;;6.08;50.13;93422.34;5105720;28;20028;-76
2023/12/23 02:30:15;;;;;;;2.65;0.60;;;;;;;6.03;50.03;93415.47;5104520;28;20523;-76
2023/12/23 02:32:42;;;;;;;1.40;0.52;;;;;;;6.07;49.79;93394.28;5106246;28;20070;-76
2023/12/23 02:35:08;;;;;;;0.73;0.70;;;;;;;6.12;49.45;93398.41;5104284;28;20031;-76
2023/12/23 02:37:33;;;;;;;1.02;0.63;;;;;;;6.21;49.80;93400.44;5106364;28;20590;-76
2023/12/23 02:39:59;;;;;;;1.25;1.00;;;;;;;6.19;49.76;93397.38;5105346;28;20020;-77
2023/12/23 02:42:25;;;;;;;1.92;1.08;;;;;;;6.13;50.63;93387.03;5105989;28;20038;-77
2023/12/23 02:44:50;;;;;;;1.15;0.82;;;;;;;6.09;50.73;93369.28;5105314;28;20038;-78
2023/12/23 02:47:15;;;;;;;1.73;0.88;;;;;;;6.13;50.41;93383.53;5106071;28;20072;-78
2023/12/23 02:49:41;;;;;;;0.98;0.70;;;;;;;6.08;50.03;93368.53;5106135;28;20027;-77
2023/12/23 02:52:06;;;;;;;0.88;0.60;;;;;;;6.03;50.45;93369.09;5105100;28;20103;-77
2023/12/23 02:54:31;;;;;;;1.15;0.70;;;;;;;6.17;49.13;93353.41;5106334;28;20028;-77
2023/12/23 02:56:57;;;;;;;1.50;1.00;;;;;;;6.08;49.95;93367.78;5104910;28;20049;-77
2023/12/23 02:59:22;;;;;;;2.75;1.58;;;;;;;6.10;50.94;93373.53;5105990;28;20023;-77
2023/12/23 03:01:47;;;;;;;2.67;1.30;;;;;;;6.03;51.41;93376.53;5105078;28;20058;-77
2023/12/23 03:04:13;;;;;;;2.80;1.60;;;;;;;5.92;51.78;93376.91;5105754;28;20016;-75
2023/12/23 03:06:38;;;;;;;3.47;1.20;;;;;;;5.79;52.48;93392.53;5105737;28;20027;-77
2023/12/23 03:09:04;;;;;;;2.15;0.93;;;;;;;5.64;52.43;93394.25;5105218;28;20118;-76
2023/12/23 03:11:29;;;;;;;2.53;0.95;;;;;;;5.58;52.46;93411.16;5108176;28;20430;-77
2023/12/23 03:13:54;;;;;;;2.00;0.80;;;;;;;5.69;52.36;93401.88;5108411;28;20090;-78
2023/12/23 03:16:20;;;;;;;1.27;0.80;;;;;;;5.69;52.59;93388.22;5109690;28;20023;-77
2023/12/23 03:18:45;;;;;;;1.17;0.65;;;;;;;5.57;52.54;93387.06;5108857;27;20027;-77
2023/12/23 03:21:11;;;;;;;1.33;0.80;;;;;;;5.63;52.31;93390.75;5109519;28;20097;-76
2023/12/23 03:23:36;;;;;;;1.45;0.73;;;;;;;5.63;52.48;93414.53;5107502;28;20028;-77
2023/12/23 03:26:02;;;;;;;1.67;0.90;;;;;;;5.54;52.75;93399.59;5109005;28;20028;-77
2023/12/23 03:28:27;;;;;;;2.53;0.88;;;;;;;5.58;52.40;93389.34;5109392;28;20050;-77
2023/12/23 03:30:52;;;;;;;2.03;0.70;;;;;;;5.55;52.80;93384.78;5107470;28;20026;-77
2023/12/23 03:33:18;;;;;;;2.60;1.63;;;;;;;5.55;52.66;93384.00;5109682;28;20011;-75
2023/12/23 03:35:43;;;;;;;5.30;0.85;;;;;;;5.57;52.60;93387.84;5108350;28;20772;-75
2023/12/23 03:38:08;;;;;;;2.63;0.82;;;;;;;5.46;52.86;93382.00;5109288;27;20023;-76
2023/12/23 03:40:34;;;;;;;2.03;1.13;;;;;;;5.46;52.91;93382.00;5108774;28;20034;-76
2023/12/23 03:42:59;;;;;;;1.30;0.90;;;;;;;5.49;52.87;93389.25;5109031;28;20027;-76
2023/12/23 03:45:25;;;;;;;1.27;1.10;;;;;;;5.47;52.96;93380.78;5108784;28;20112;-76
2023/12/23 03:47:51;;;;;;;1.50;0.85;;;;;;;5.50;52.91;93379.88;5108331;27;20482;-77
2023/12/23 03:50:16;;;;;;;1.27;0.88;;;;;;;5.47;53.12;93360.94;5109378;28;20478;-76
2023/12/23 03:52:41;;;;;;;2.38;0.90;;;;;;;5.44;52.91;93359.84;5108139;28;20538;-76
2023/12/23 03:55:08;;;;;;;4.10;2.03;;;;;;;5.31;53.57;93351.72;5108754;28;20036;-75
2023/12/23 03:57:34;;;;;;;1.38;1.20;;;;;;;5.35;53.10;93348.13;5108062;28;20301;-76
2023/12/23 03:59:59;;;;;;;2.13;1.08;;;;;;;5.27;53.45;93323.06;5108439;28;20042;-76
2023/12/23 04:02:24;;;;;;;0.80;0.77;;;;;;;5.33;53.16;93335.72;5108468;28;20073;-77
2023/12/23 04:04:50;;;;;;;1.42;0.80;;;;;;;5.30;53.23;93324.91;5108553;28;20458;-75
2023/12/23 04:07:15;;;;;;;1.63;0.60;;;;;;;5.34;52.36;93333.75;5108710;28;20530;-76
2023/12/23 04:09:41;;;;;;;1.75;0.80;;;;;;;5.34;52.23;93333.75;5107943;28;20521;-76
2023/12/23 04:12:06;;;;;;;2.50;1.00;;;;;;;5.34;51.86;93317.41;5108406;27;20023;-76
2023/12/23 04:14:32;;;;;;;1.13;0.80;;;;;;;5.41;51.58;93340.91;5105891;28;20052;-75
2023/12/23 04:16:58;;;;;;;1.33;0.85;;;;;;;5.45;51.68;93331.41;5108120;28;20103;-76
2023/12/23 04:19:23;;;;;;;1.50;1.00;;;;;;;5.45;51.89;93345.03;5107930;28;20574;-75
2023/12/23 04:21:49;;;;;;;2.53;0.90;;;;;;;5.42;51.58;93359.53;5106355;28;20042;-77
2023/12/23 04:24:14;;;;;;;1.42;0.70;;;;;;;5.51;50.11;93362.34;5107948;28;20031;-77
2023/12/23 04:26:40;;;;;;;2.13;0.70;;;;;;;5.74;48.52;93347.53;5107786;28;20024;-77
2023/12/23 04:29:05;;;;;;;2.92;0.80;;;;;;;5.96;47.63;93322.22;5107043;28;20035;-77
2023/12/23 04:31:30;;;;;;;1.40;0.50;;;;;;;6.16;47.26;93317.19;5107701;28;20070;-77
2023/12/23 04:33:56;;;;;;;2.58;0.55;;;;;;;6.43;45.95;93330.19;5108348;28;20558;-77
2023/12/23 04:36:24;;;;;;;1.17;0.57;;;;;;;6.53;45.91;93307.16;5107467;28;20012;-77
2023/12/23 04:38:50;;;;;;;0.82;0.40;;;;;;;6.67;45.55;93311.31;5107981;28;20023;-75
2023/12/23 04:41:15;;;;;;;1.15;0.70;;;;;;;6.80;45.05;93333.81;5106017;28;20032;-76
2023/12/23 04:43:41;;;;;;;0.80;0.60;;;;;;;6.93;44.67;93347.34;5107730;28;20486;-76
2023/12/23 04:46:06;;;;;;;0.73;0.55;;;;;;;7.02;44.56;93311.09;5107890;28;20032;-76
2023/12/23 04:48:32;;;;;;;2.40;0.50;;;;;;;7.18;43.81;93333.44;5105986;28;20050;-76
2023/12/23 04:50:58;;;;;;;0.88;0.60;;;;;;;7.26;44.06;93342.09;5107975;28;20023;-76
2023/12/23 04:53:24;;;;;;;1.33;0.63;;;;;;;7.39;43.67;93339.22;5105582;28;20024;-78
2023/12/23 04:55:49;;;;;;;0.68;0.63;;;;;;;7.40;44.04;93351.69;5107601;28;20398;-77
2023/12/23 04:58:15;;;;;;;1.67;0.60;;;;;;;7.45;43.56;93368.25;5107061;27;20112;-77
2023/12/23 05:00:40;;;;;;;0.77;0.50;;;;;;;7.52;43.20;93369.94;5107525;28;20103;-77
2023/12/23 05:03:06;;;;;;;1.42;0.82;;;;;;;7.62;42.87;93393.31;5106960;28;20038;-75
2023/12/23 05:05:31;;;;;;;0.95;0.55;;;;;;;7.75;42.83;93392.44;5106900;28;20110;-76
2023/12/23 05:07:57;;;;;;;1.40;0.47;;;;;;;7.82;42.19;93405.81;5107866;28;20020;-77
2023/12/23 05:10:22;;;;;;;1.55;0.60;;;;;;;7.90;42.30;93396.06;5106884;28;20421;-77
2023/12/23 05:12:47;;;;;;;0.60;0.52;;;;;;;7.87;42.09;93386.78;5107542;28;20421;-77
2023/12/23 05:15:13;;;;;;;1.08;0.70;;;;;;;7.89;42.31;93397.28;5106355;28;20039;-76
2023/12/23 05:17:38;;;;;;;2.08;0.50;;;;;;;7.86;42.33;93365.38;5107221;28;20223;-75
2023/12/23 05:20:05;;;;;;;1.23;0.60;;;;;;;7.93;42.19;93392.41;5106384;28;20108;-76
2023/12/23 05:22:30;;;;;;;1.27;0.70;;;;;;;7.96;42.21;93408.66;5107378;28;20024;-76
2023/12/23 05:24:56;;;;;;;1.98;0.77;;;;;;;7.95;42.41;93420.06;5107127;28;20028;-75
2023/12/23 05:27:22;;;;;;;0.55;0.47;;;;;;;7.87;42.29;93424.34;5106880;28;20061;-79
2023/12/23 05:29:48;;;;;;;1.40;0.70;;;;;;;7.79;42.88;93423.09;5107618;28;20149;-76
2023/12/23 05:32:13;;;;;;;0.73;0.60;;;;;;;7.80;42.93;93409.00;5105491;28;20110;-76
2023/12/23 05:34:38;;;;;;;1.00;0.50;;;;;;;7.78;43.13;93405.19;5107306;28;20027;-77
2023/12/23 05:37:04;;;;;;;1.05;0.90;;;;;;;7.70;43.32;93427.38;5106244;28;20024;-76
2023/12/23 05:39:29;;;;;;;2.97;0.82;;;;;;;7.70;43.29;93410.97;5107231;28;20429;-77
2023/12/23 05:41:54;;;;;;;1.67;0.73;;;;;;;7.82;43.26;93403.06;5106261;28;20068;-77
2023/12/23 05:44:20;;;;;;;1.33;0.75;;;;;;;7.85;43.34;93396.66;5106318;28;20026;-77
2023/12/23 05:46:45;;;;;;;1.10;0.82;;;;;;;7.73;43.55;93423.72;5107105;28;20027;-75
2023/12/23 05:49:11;;;;;;;0.40;0.38;;;;;;;7.72;43.72;93405.78;5105231;28;20088;-77
2023/12/23 05:51:36;;;;;;;2.28;0.80;;;;;;;7.71;43.92;93411.72;5107221;28;20030;-76
2023/12/23 05:54:02;;;;;;;2.35;0.70;;;;;;;7.77;43.51;93411.88;5105692;28;20032;-77
2023/12/23 05:56:27;;;;;;;1.50;0.88;;;;;;;7.79;43.60;93412.91;5106828;28;20027;-76
2023/12/23 05:58:53;;;;;;;1.00;0.70;;;;;;;7.68;44.04;93401.66;5105743;28;20070;-76
2023/12/23 06:01:18;;;;;;;2.45;1.08;;;;;;;7.88;43.61;93453.22;5106543;28;20046;-75
2023/12/23 06:03:43;;;;;;;1.70;0.90;;;;;;;7.83;43.80;93432.69;5106403;28;20031;-76
2023/12/23 06:06:09;;;;;;;1.73;0.70;;;;;;;7.83;43.87;93413.53;5105702;28;20028;-76
2023/12/23 06:08:34;;;;;;;0.95;0.88;;;;;;;7.88;43.95;93399.25;5106754;28;20088;-76
2023/12/23 06:11:00;;;;;;;2.17;1.10;;;;;;;7.96;43.75;93422.34;5105244;28;20110;-76
2023/12/23 06:13:25;;;;;;;1.48;0.90;;;;;;;8.03;43.80;93435.00;5106296;28;20048;-76
2023/12/23 06:15:51;;;;;;;1.67;0.65;;;;;;;8.01;43.61;93425.69;5105672;28;20024;-75
2023/12/23 06:18:16;;;;;;;2.63;0.95;;;;;;;7.97;43.72;93440.31;5104766;28;20049;-76
2023/12/23 06:20:41;;;;;;;1.95;0.93;;;;;;;8.05;43.81;93453.69;5100763;28;20058;-75
2023/12/23 06:23:07;;;;;;;1.50;0.57;;;;;;;8.05;43.60;93434.53;5092619;28;20107;-76
2023/12/23 06:25:32;;;;;;;1.40;0.80;;;;;;;7.93;44.33;93434.22;5086445;28;20382;-77
2023/12/23 06:27:58;;;;;;;1.25;0.70;;;;;;;7.97;44.01;93437.56;5104888;28;20051;-76
2023/12/23 06:30:23;;;;;;;1.20;0.75;;;;;;;8.07;43.97;93432.09;5106841;28;20080;-76
2023/12/23 06:32:49;;;;;;;2.63;0.90;;;;;;;8.11;43.96;93433.47;5105520;28;20544;-76
2023/12/23 06:35:14;;;;;;;1.98;0.80;;;;;;;7.97;44.50;93428.59;5105708;28;20437;-75
2023/12/23 06:37:39;;;;;;;1.00;0.77;;;;;;;8.04;44.50;93424.81;5105528;28;20023;-76
2023/12/23 06:40:05;;;;;;;3.42;0.88;;;;;;;8.02;44.56;93408.06;5091358;28;20090;-78
2023/12/23 06:42:31;;;;;;;3.58;0.85;;;;;;;7.91;45.09;93403.03;5095953;28;20031;-78
2023/12/23 06:44:56;;;;;;;3.15;0.98;;;;;;;7.96;44.88;93416.88;5098207;28;20020;-77
2023/12/23 06:47:21;;;;;;;2.88;1.60;;;;;;;8.08;44.95;93423.41;5089047;28;20617;-76
2023/12/23 06:49:47;;;;;;;2.08;1.00;;;;;;;8.23;44.70;93443.47;5091817;28;20050;-73
2023/12/23 06:52:13;;;;;;;1.48;0.82;;;;;;;8.22;44.72;93439.22;5099099;28;20055;-75
2023/12/23 06:54:38;;;;;;;3.42;1.10;;;;;;;8.23;44.62;93445.47;5089175;28;20497;-76
2023/12/23 06:57:04;;;;;;;2.63;0.95;;;;;;;8.17;44.88;93448.06;5106871;28;20024;-76
2023/12/23 06:59:29;;;;;;;1.52;1.10;;;;;;;8.13;44.97;93443.94;5109513;28;20059;-75
2023/12/23 07:01:55;;;;;;;2.92;1.00;;;;;;;8.23;44.95;93454.44;5109400;28;20134;-76
2023/12/23 07:04:20;;;;;;;2.38;1.10;;;;;;;8.27;44.99;93446.06;5109524;28;20035;-76
2023/12/23 07:06:45;;;;;;;1.70;0.82;;;;;;;8.20;45.01;93449.09;5109160;28;20031;-76
2023/12/23 07:09:11;;;;;;;2.78;0.95;;;;;;;8.31;44.97;93465.81;5092491;28;20056;-78
2023/12/23 07:11:36;;;;;;;2.13;1.20;;;;;;;8.21;45.04;93464.34;5088318;28;20411;-74
2023/12/23 07:14:03;;;;;;;1.25;0.80;;;;;;;8.27;44.96;93470.72;5088963;28;20045;-76
2023/12/23 07:16:28;;;;;;;3.05;1.05;;;;;;;8.39;44.77;93485.50;5087114;28;20023;-78
2023/12/23 07:18:53;;;;;;;2.63;1.08;;;;;;;8.39;45.12;93460.84;5091256;28;20024;-76
2023/12/23 07:21:19;;;;;;;3.28;1.23;;;;;;;8.36;45.09;93445.31;5103674;28;20072;-76
2023/12/23 07:23:44;;;;;;;2.08;1.05;;;;;;;8.41;45.08;93477.56;5107834;28;20540;-78
2023/12/23 07:26:14;;;;;;;2.90;0.90;;;;;;;8.51;45.08;93481.81;5089143;28;20028;-74
2023/12/23 07:28:39;;;;;;;3.65;0.88;;;;;;;8.54;45.21;93469.94;5100467;28;20051;-76
2023/12/23 07:31:05;;;;;;;3.40;1.45;;;;;;;8.62;45.13;93471.16;5094318;28;20447;-75
2023/12/23 07:33:31;;;;;;;3.55;1.63;;;;;;;8.77;45.02;93480.28;5105436;28;20734;-76
2023/12/23 07:35:57;;;;;;;2.38;1.33;;;;;;;8.96;44.58;93480.22;5107084;28;20015;-80
2023/12/23 07:38:22;;;;;;;1.88;1.23;;;;;;;9.11;44.09;93503.00;5091455;28;20020;-73
2023/12/23 07:40:47;;;;;;;2.53;0.90;;;;;;;9.21;43.87;93495.50;5098999;28;20476;-75
2023/12/23 07:43:13;;;;;;;1.90;1.20;;;;;;;9.45;43.62;93506.53;5103238;28;20045;-77
2023/12/23 07:45:38;;;;;;;2.75;1.48;;;;;;;9.73;43.13;93512.66;5089822;28;20043;-78
2023/12/23 07:48:04;;;;;;;2.45;1.00;;;;;;;10.12;42.37;93491.53;5111161;27;20659;-77
2023/12/23 07:50:30;;;;;;;2.40;1.50;;;;;;;10.29;42.03;93505.63;5090318;28;20096;-77
2023/12/23 07:52:56;;;;;;;3.70;1.33;;;;;;;10.24;41.95;93506.25;5101678;28;20686;-84
2023/12/23 07:55:26;;;;;;;1.77;1.17;;;;;;;10.97;40.71;93519.38;5105563;28;20023;-77
2023/12/23 07:57:51;;;;;;;3.38;1.60;;;;;;;12.92;37.58;93537.13;5105983;28;20103;-80
2023/12/23 08:00:17;;;;;;;4.25;1.13;;;;;;;13.84;35.02;93532.69;5106719;28;20102;-78
2023/12/23 08:02:43;;;;;;;1.63;1.15;;;;;;;12.92;36.47;93539.16;5106638;28;20478;-77
2023/12/23 08:05:08;;;;;;;1.60;1.30;;;;;;;12.86;36.97;93558.38;5106913;28;20084;-79
2023/12/23 08:07:33;;;;;;;4.78;1.42;;;;;;;13.75;35.72;93561.25;5107932;28;20524;-78
2023/12/23 08:09:59;;;;;;;2.05;1.10;;;;;;;15.19;32.94;93564.50;5090125;28;20026;-79
2023/12/23 08:12:25;;;;;;;2.47;1.25;;;;;;;15.88;31.82;93573.16;5073072;28;20081;-78
2023/12/23 08:14:50;;;;;;;4.13;1.48;;;;;;;16.28;31.05;93571.09;5086514;28;20063;-79
2023/12/23 08:17:15;;;;;;;3.92;1.38;;;;;;;16.09;31.18;93572.91;5102759;28;20039;-78
2023/12/23 08:19:41;;;;;;;3.67;1.40;;;;;;;15.24;32.48;93590.69;5108039;28;20027;-79
2023/12/23 08:22:06;;;;;;;3.33;1.40;;;;;;;14.72;33.24;93624.19;5108089;28;20020;-78
2023/12/23 08:24:32;;;;;;;2.58;1.30;;;;;;;14.16;34.30;93615.53;5106032;28;20024;-79
2023/12/23 08:26:58;;;;;;;3.28;1.67;;;;;;;13.80;35.04;93621.28;5095229;28;20027;-78
2023/12/23 08:29:24;;;;;;;5.45;1.83;;;;;;;13.37;36.04;93638.97;5106588;28;20027;-75
2023/12/23 08:31:50;;;;;;;3.25;1.60;;;;;;;12.96;36.74;93689.41;5103578;28;20024;-74
2023/12/23 08:34:15;;;;;;;3.58;2.08;;;;;;;12.51;38.24;93720.34;5086801;28;20375;-75
2023/12/23 08:36:41;;;;;;;3.70;1.80;;;;;;;12.07;39.71;93697.13;5087607;28;20027;-75
2023/12/23 08:39:06;;;;;;;4.05;1.50;;;;;;;11.61;41.51;93738.09;5089040;28;20040;-74
2023/12/23 08:41:32;;;;;;;2.40;1.65;;;;;;;11.03;43.77;93731.97;5105646;28;20020;-74
2023/12/23 08:43:57;;;;;;;5.25;2.55;;;;;;;10.81;44.70;93713.03;5094511;28;20020;-74
2023/12/23 08:46:22;;;;;;;6.00;2.20;;;;;;;10.50;45.06;93718.09;5103908;28;20384;-74
2023/12/23 08:48:48;;;;;;;3.65;2.05;;;;;;;12.49;41.84;93732.59;5098836;28;20028;-74
2023/12/23 08:51:13;;;;;;;6.63;2.58;;;;;;;12.93;40.56;93742.75;5101886;28;20028;-74
2023/12/23 08:53:39;;;;;;;4.45;2.78;;;;;;;12.50;41.28;93736.09;5105902;28;20100;-75
2023/12/23 08:56:05;;;;;;;6.30;2.63;;;;;;;11.80;42.68;93766.22;5105737;28;20025;-75
2023/12/23 08:58:31;;;;;;;6.93;3.03;;;;;;;11.74;43.38;93787.38;5106664;28;20028;-74
2023/12/23 09:00:57;;;;;;;5.18;2.65;;;;;;;11.34;44.69;93783.84;5105928;28;20024;-76
2023/12/23 09:03:23;;;;;;;6.43;3.88;;;;;;;11.14;45.66;93775.44;5105278;28;20126;-74
2023/12/23 09:05:48;;;;;;;6.05;3.30;;;;;;;10.90;46.73;93778.19;5107610;28;20557;-75
2023/12/23 09:08:14;;;;;;;6.70;2.92;;;;;;;10.27;47.94;93769.00;5105551;28;20028;-75
2023/12/23 09:10:39;;;;;;;5.43;3.03;;;;;;;10.63;47.60;93782.59;5107645;28;20094;-74
2023/12/23 09:13:05;;;;;;;5.57;2.90;;;;;;;11.29;45.45;93764.50;5106074;28;20445;-74
2023/12/23 09:15:30;;;;;;;5.97;2.75;;;;;;;11.47;45.29;93755.34;5107452;28;20059;-75
2023/12/23 09:17:56;;;;;;;4.00;2.50;;;;;;;11.39;44.88;93774.97;5107268;27;20034;-75
2023/12/23 09:20:21;;;;;;;3.90;2.45;;;;;;;10.78;46.26;93768.16;5106350;28;20375;-74
2023/12/23 09:22:46;;;;;;;3.55;2.05;;;;;;;11.30;45.09;93799.81;5107281;28;20062;-74
2023/12/23 09:25:12;;;;;;;2.72;1.48;;;;;;;10.99;45.24;93813.88;5105932;28;20151;-75
2023/12/23 09:27:37;;;;;;;3.88;2.35;;;;;;;10.52;46.99;93823.56;5107081;28;20026;-73
2023/12/23 09:30:04;;;;;;;3.08;2.10;;;;;;;10.06;47.66;93787.19;5106266;28;20038;-75
2023/12/23 09:32:29;;;;;;;2.38;1.60;;;;;;;9.47;49.20;93806.59;5107038;28;20024;-75
2023/12/23 09:34:55;;;;;;;3.63;1.60;;;;;;;9.27;49.64;93817.25;5106447;28;20016;-74
2023/12/23 09:37:20;;;;;;;3.63;1.83;;;;;;;9.07;50.48;93825.16;5106740;28;20136;-76
2023/12/23 09:39:46;;;;;;;3.10;1.70;;;;;;;8.63;51.71;93852.69;5105408;28;20118;-75
2023/12/23 09:42:11;;;;;;;5.07;2.10;;;;;;;8.64;52.08;93849.50;5105872;28;20016;-75
2023/12/23 09:44:37;;;;;;;3.42;2.10;;;;;;;8.30;53.88;93887.94;5106924;28;20077;-76
2023/12/23 09:47:04;;;;;;;3.67;1.88;;;;;;;8.14;54.80;93897.13;5104338;28;20015;-74
2023/12/23 09:49:30;;;;;;;4.45;2.00;;;;;;;8.12;55.32;93907.75;5106684;28;20100;-74
2023/12/23 09:51:56;;;;;;;2.75;1.55;;;;;;;7.87;57.46;93914.13;5104682;28;20513;-75
2023/12/23 09:54:23;;;;;;;2.58;1.50;;;;;;;7.75;58.03;93926.63;5106214;28;20028;-74
2023/12/23 09:56:49;;;;;;;3.05;1.60;;;;;;;7.49;59.01;93915.00;5104860;28;20119;-75
2023/12/23 09:59:15;;;;;;;2.92;1.60;;;;;;;7.41;59.32;93930.13;5105971;28;20099;-75
2023/12/23 10:01:40;;;;;;;3.10;1.70;;;;;;;7.34;59.75;93941.25;5106739;28;20026;-74
2023/12/23 10:04:06;;;;;;;3.78;1.85;;;;;;;6.97;60.69;93921.75;5105242;28;20032;-75
2023/12/23 10:06:31;;;;;;;3.92;2.15;;;;;;;6.94;60.97;93919.91;5104920;28;20043;-75
2023/12/23 10:08:57;;;;;;;3.60;1.70;;;;;;;6.93;60.41;93927.31;5105904;28;20142;-74
2023/12/23 10:11:24;;;;;;;2.45;1.40;;;;;;;7.27;59.51;93930.56;5105691;28;20042;-76
2023/12/23 10:13:50;;;;;;;2.63;1.52;;;;;;;7.54;58.71;93954.69;5105569;28;20111;-77
2023/12/23 10:16:16;;;;;;;4.00;1.48;;;;;;;7.33;59.17;93978.00;5104640;28;20055;-76
2023/12/23 10:18:41;;;;;;;4.10;1.40;;;;;;;7.13;59.65;93981.75;5107302;28;20062;-77
2023/12/23 10:21:07;;;;;;;4.28;2.17;;;;;;;7.03;59.67;93971.16;5112507;27;20031;-75
2023/12/23 10:23:33;;;;;;;3.28;1.50;;;;;;;6.94;59.50;93985.47;5111905;28;20098;-74
2023/12/23 10:25:58;;;;;;;2.38;1.45;;;;;;;6.83;59.88;93991.25;5112201;27;20560;-75
2023/12/23 10:28:24;;;;;;;2.45;1.23;;;;;;;6.72;60.54;93993.53;5112783;27;20059;-75
2023/12/23 10:30:50;;;;;;;4.38;1.63;;;;;;;6.79;60.40;94001.50;5111106;28;20038;-74
2023/12/23 10:33:17;;;;;;;2.90;1.50;;;;;;;6.78;60.86;94005.44;5111618;28;20450;-74
2023/12/23 10:35:46;;;;;;;2.55;1.60;;;;;;;6.78;60.64;93988.28;5112810;27;20536;-74
2023/12/23 10:38:20;;;;;;;1.60;1.40;;;;;;;6.71;60.90;93989.28;5111182;28;20102;-74
2023/12/23 10:41:25;;;;;;;2.00;1.23;;;;;;;6.69;60.26;93993.63;5112278;28;20023;-73
2023/12/23 10:43:52;;;;;;;1.92;1.13;;;;;;;6.61;60.42;93993.84;5101845;28;20038;-74
2023/12/23 10:46:18;;;;;;;1.95;1.10;;;;;;;6.58;61.38;94011.06;5112724;27;20031;-74
2023/12/23 10:48:43;;;;;;;1.40;0.90;;;;;;;6.45;61.06;94021.19;5112874;27;20513;-73
2023/12/23 10:51:09;;;;;;;2.05;1.02;;;;;;;6.29;61.23;94029.44;5112423;27;20508;-76
2023/12/23 10:53:35;;;;;;;1.23;0.70;;;;;;;6.33;61.04;94013.72;5111788;28;20110;-74
2023/12/23 10:56:00;;;;;;;2.05;1.35;;;;;;;6.42;61.08;94022.03;5110412;28;20031;-76
2023/12/23 10:58:26;;;;;;;3.33;1.38;;;;;;;6.44;60.87;94030.59;5111438;28;20027;-74
2023/12/23 11:00:54;;;;;;;2.92;1.50;;;;;;;6.46;61.46;94039.09;5110629;28;20027;-75
2023/12/23 11:03:19;;;;;;;2.47;1.20;;;;;;;6.52;61.43;94031.16;5112643;27;20161;-74
2023/12/23 11:05:46;;;;;;;1.58;1.00;;;;;;;6.61;60.88;94036.75;5110801;28;20107;-75
2023/12/23 11:08:15;;;;;;;2.25;1.58;;;;;;;6.68;60.26;94013.94;5110602;28;20393;-75
2023/12/23 11:10:41;;;;;;;3.65;1.50;;;;;;;6.78;60.33;94004.69;5111602;28;20024;-75
2023/12/23 11:13:07;;;;;;;4.00;2.60;;;;;;;6.85;60.53;94016.16;5110178;28;20039;-74
2023/12/23 11:15:33;;;;;;;4.07;2.72;;;;;;;6.92;60.39;94018.69;5112927;27;20027;-74
2023/12/23 11:17:58;;;;;;;5.00;2.92;;;;;;;6.95;59.74;94013.56;5110439;28;20110;-74
2023/12/23 11:20:33;;;;;;;4.53;2.70;;;;;;;6.98;59.29;94013.44;5112415;27;20024;-74
2023/12/23 11:23:33;;;;;;;3.30;2.05;;;;;;;7.01;59.07;94020.78;5112263;27;20032;-74
2023/12/23 11:26:03;;;;;;;1.30;0.98;;;;;;;6.84;57.32;94011.13;5068493;28;20486;-74
2023/12/23 11:28:31;;;;;;;2.33;1.60;;;;;;;6.85;57.48;93999.75;5052196;28;20049;-74
2023/12/23 11:30:58;;;;;;;2.05;1.20;;;;;;;6.74;57.31;93982.16;5065724;28;20028;-73
2023/12/23 11:33:26;;;;;;;1.70;1.17;;;;;;;6.70;56.97;93987.72;5065682;28;20103;-76
2023/12/23 11:35:53;;;;;;;2.60;1.52;;;;;;;6.61;57.09;93999.28;5065497;28;20167;-74